Time;durP1;ratioP1;P1;durP2;ratioP2;P2;SDS_P1;SDS_P2;PMS_P1;PMS_P2;Temp;Humidity;BMP_temperature;BMP_pressure;BME280_temperature;BME280_humidity;BME280_pressure;Samples;Min_cycle;Max_cycle;Signal;HPM_P1;HPM_P2
2022/08/08 08:05:25;;;;;;;1.33;0.70;;;;;;;;;;5116156;22;20604;-86
2022/08/08 08:07:54;;;;;;;1.20;0.88;;;;;;;;;;5075636;28;20728;-86
2022/08/08 08:10:22;;;;;;;2.20;0.82;;;;;;;;;;5080011;28;20205;-85
2022/08/08 08:12:53;;;;;;;1.67;1.00;;;;;;;;;;5078084;28;20728;-86
2022/08/08 08:15:22;;;;;;;2.15;0.60;;;;;;;;;;5079498;28;20278;-86
2022/08/08 08:17:50;;;;;;;3.85;0.77;;;;;;;;;;5078923;28;20592;-86
2022/08/08 08:20:19;;;;;;;1.02;0.60;;;;;;;;;;5079476;28;20210;-88
2022/08/08 08:22:47;;;;;;;2.97;0.93;;;;;;;;;;5078139;28;20236;-88
2022/08/08 08:25:14;;;;;;;3.92;0.50;;;;;;;;;;5078473;28;20233;-89
2022/08/08 08:27:42;;;;;;;0.98;0.70;;;;;;;;;;5077930;28;20229;-88
2022/08/08 08:30:09;;;;;;;1.40;0.60;;;;;;;;;;5079236;28;20641;-85
2022/08/08 08:32:37;;;;;;;1.30;0.60;;;;;;;;;;5037904;28;20269;-89
2022/08/08 08:35:04;;;;;;;2.13;0.68;;;;;;;;;;5041725;28;20658;-89
2022/08/08 08:37:31;;;;;;;1.63;0.88;;;;;;;;;;5057792;28;20228;-88
2022/08/08 08:39:59;;;;;;;0.98;0.88;;;;;;;;;;5049272;28;20223;-88
2022/08/08 08:42:27;;;;;;;2.85;0.70;;;;;;;;;;5034952;28;20245;-89
2022/08/08 08:44:54;;;;;;;0.82;0.80;;;;;;;;;;5035693;28;20264;-89
2022/08/08 08:47:22;;;;;;;0.75;0.70;;;;;;;;;;5034747;28;20237;-88
2022/08/08 08:49:49;;;;;;;0.65;0.55;;;;;;;;;;5035346;28;20214;-88
2022/08/08 08:52:17;;;;;;;1.00;0.75;;;;;;;;;;5034923;28;20231;-88
2022/08/08 08:54:46;;;;;;;1.55;0.68;;;;;;;;;;5035323;28;20937;-88
2022/08/08 08:57:15;;;;;;;3.40;0.68;;;;;;;;;;5034927;28;20233;-90
2022/08/08 08:59:44;;;;;;;0.70;0.70;;;;;;;;;;5035446;28;20207;-89
2022/08/08 09:02:17;;;;;;;1.17;0.60;;;;;;;;;;5034777;28;20254;-90
2022/08/08 09:04:45;;;;;;;0.80;0.80;;;;;;;;;;5034864;28;20658;-89
2022/08/08 09:07:13;;;;;;;1.52;0.70;;;;;;;;;;5034453;28;20238;-89
2022/08/08 09:09:41;;;;;;;0.77;0.70;;;;;;;;;;5034976;28;20219;-89
2022/08/08 09:12:10;;;;;;;0.60;0.60;;;;;;;;;;5034449;28;20234;-89
2022/08/08 09:14:42;;;;;;;3.72;0.75;;;;;;;;;;5035321;28;20222;-90
2022/08/08 09:17:09;;;;;;;2.60;0.80;;;;;;;;;;5034832;28;20234;-86
2022/08/08 09:19:36;;;;;;;2.17;0.60;;;;;;;;;;5034819;28;20214;-89
2022/08/08 09:22:04;;;;;;;2.05;0.70;;;;;;;;;;5034476;28;20238;-90
2022/08/08 09:24:31;;;;;;;1.23;0.70;;;;;;;;;;5041093;28;20601;-90
2022/08/08 09:27:01;;;;;;;0.65;0.52;;;;;;;;;;5054624;28;20232;-89
2022/08/08 09:29:32;;;;;;;0.68;0.60;;;;;;;;;;5054464;28;20662;-87
2022/08/08 09:32:03;;;;;;;1.65;0.70;;;;;;;;;;5068645;28;20810;-90
2022/08/08 09:34:32;;;;;;;1.20;0.70;;;;;;;;;;5074426;28;20225;-90
2022/08/08 09:37:02;;;;;;;1.45;0.85;;;;;;;;;;5074008;28;20237;-90
2022/08/08 09:39:31;;;;;;;1.05;0.70;;;;;;;;;;5074934;28;20209;-90
2022/08/08 09:42:02;;;;;;;3.03;1.13;;;;;;;;;;5068412;28;20260;-90
2022/08/08 09:44:32;;;;;;;0.95;0.70;;;;;;;;;;5054235;28;20226;-90
2022/08/08 09:47:03;;;;;;;0.80;0.63;;;;;;;;;;5053870;28;20458;-90
2022/08/08 09:49:32;;;;;;;1.27;0.77;;;;;;;;;;5054161;28;20198;-90
2022/08/08 09:51:59;;;;;;;2.55;1.20;;;;;;;;;;5035277;28;20230;-90
2022/08/08 09:54:33;;;;;;;1.77;0.90;;;;;;;;;;5064984;28;20236;-90
2022/08/08 09:57:02;;;;;;;2.10;0.80;;;;;;;;;;5056666;28;20589;-90
2022/08/08 09:59:32;;;;;;;0.50;0.50;;;;;;;;;;5054141;28;20213;-90
2022/08/08 10:02:00;;;;;;;1.13;0.70;;;;;;;;;;5053670;28;20260;-90
2022/08/08 10:04:28;;;;;;;1.60;0.55;;;;;;;;;;5053623;28;20237;-90
2022/08/08 10:06:57;;;;;;;0.73;0.60;;;;;;;;;;5053219;28;20244;-90
2022/08/08 10:09:32;;;;;;;2.50;0.70;;;;;;;;;;5054167;28;20213;-90
2022/08/08 10:12:00;;;;;;;2.38;0.82;;;;;;;;;;5053143;28;20283;-90
2022/08/08 10:14:33;;;;;;;0.80;0.80;;;;;;;;;;5054032;28;20237;-90
2022/08/08 10:17:00;;;;;;;0.93;0.80;;;;;;;;;;5047207;28;20721;-90
2022/08/08 10:19:37;;;;;;;0.70;0.70;;;;;;;;;;5048211;28;20203;-90
2022/08/08 10:22:06;;;;;;;1.48;0.75;;;;;;;;;;5045325;28;20229;-90
2022/08/08 10:24:34;;;;;;;1.27;0.90;;;;;;;;;;5053454;28;20237;-91
2022/08/08 10:27:02;;;;;;;0.80;0.80;;;;;;;;;;5052840;28;20586;-90
2022/08/08 10:29:39;;;;;;;1.70;0.77;;;;;;;;;;5053492;28;20194;-91
2022/08/08 10:34:56;;;;;;;1.17;0.60;;;;;;;;;;5073247;28;20301;-91
2022/08/08 10:37:26;;;;;;;1.17;0.80;;;;;;;;;;5061639;28;20241;-89
2022/08/08 10:39:54;;;;;;;1.08;0.63;;;;;;;;;;5053394;28;20209;-90
2022/08/08 10:42:23;;;;;;;2.17;0.82;;;;;;;;;;5052248;28;20225;-90
2022/08/08 10:44:50;;;;;;;0.70;0.68;;;;;;;;;;5052014;28;20236;-90
2022/08/08 10:47:18;;;;;;;0.60;0.60;;;;;;;;;;5052290;28;20236;-89
2022/08/08 10:49:51;;;;;;;1.05;0.80;;;;;;;;;;5052691;28;20212;-90
2022/08/08 10:52:26;;;;;;;2.13;0.90;;;;;;;;;;5052667;28;20233;-89
2022/08/08 10:54:54;;;;;;;1.58;0.57;;;;;;;;;;5052826;28;20240;-89
2022/08/08 10:57:21;;;;;;;1.33;1.10;;;;;;;;;;5052507;28;20701;-91
2022/08/08 10:59:52;;;;;;;1.25;0.73;;;;;;;;;;5053365;28;20220;-90
2022/08/08 11:02:26;;;;;;;1.85;0.70;;;;;;;;;;5051961;28;20229;-90
2022/08/08 11:04:54;;;;;;;1.98;0.73;;;;;;;;;;5052912;28;20226;-90
2022/08/08 11:07:29;;;;;;;0.63;0.63;;;;;;;;;;5075097;28;20225;-90
2022/08/08 11:09:57;;;;;;;0.60;0.60;;;;;;;;;;5075610;28;20260;-91
2022/08/08 11:12:24;;;;;;;1.88;0.60;;;;;;;;;;5052497;28;20283;-90
2022/08/08 11:14:52;;;;;;;0.77;0.70;;;;;;;;;;5051527;28;20229;-90
2022/08/08 11:17:23;;;;;;;3.90;0.90;;;;;;;;;;5051416;28;20228;-91
2022/08/08 11:19:52;;;;;;;1.55;0.60;;;;;;;;;;5052603;28;20185;-90
2022/08/08 11:22:21;;;;;;;0.90;0.57;;;;;;;;;;5051872;28;20259;-91
2022/08/08 11:24:49;;;;;;;1.05;0.70;;;;;;;;;;5051468;28;20950;-86
2022/08/08 11:27:17;;;;;;;1.98;0.60;;;;;;;;;;5051789;28;20566;-90
2022/08/08 11:29:45;;;;;;;1.48;0.70;;;;;;;;;;5052845;28;20209;-90
2022/08/08 11:32:13;;;;;;;0.65;0.65;;;;;;;;;;5067962;28;20696;-90
2022/08/08 11:34:42;;;;;;;1.15;0.80;;;;;;;;;;5072372;28;20252;-88
2022/08/08 11:37:10;;;;;;;0.65;0.65;;;;;;;;;;5055418;28;20656;-90
2022/08/08 11:39:38;;;;;;;0.85;0.70;;;;;;;;;;5051450;28;20205;-90
2022/08/08 11:42:06;;;;;;;0.70;0.70;;;;;;;;;;5051300;28;20245;-87
2022/08/08 11:44:34;;;;;;;0.55;0.55;;;;;;;;;;5051440;28;20784;-89
2022/08/08 11:47:01;;;;;;;2.78;0.60;;;;;;;;;;5051129;28;20244;-90
2022/08/08 11:49:28;;;;;;;0.68;0.68;;;;;;;;;;5051826;28;20217;-90
2022/08/08 11:51:56;;;;;;;1.17;0.70;;;;;;;;;;5050978;28;20237;-90
2022/08/08 11:54:33;;;;;;;1.95;0.85;;;;;;;;;;5051752;28;20244;-90
2022/08/08 11:57:11;;;;;;;0.98;0.70;;;;;;;;;;5051550;28;20243;-90
2022/08/08 11:59:43;;;;;;;0.40;0.40;;;;;;;;;;5052132;28;20258;-90
2022/08/08 12:02:10;;;;;;;1.02;0.80;;;;;;;;;;5050816;28;20635;-89
2022/08/08 12:04:37;;;;;;;0.65;0.65;;;;;;;;;;5050765;28;20904;-89
2022/08/08 12:07:05;;;;;;;0.73;0.60;;;;;;;;;;5051325;28;20608;-90
2022/08/08 12:09:32;;;;;;;1.27;0.70;;;;;;;;;;5043976;28;20209;-87
2022/08/08 12:11:59;;;;;;;0.68;0.68;;;;;;;;;;5030873;28;20229;-90
2022/08/08 12:14:28;;;;;;;2.00;0.70;;;;;;;;;;5032671;28;20562;-89
2022/08/08 12:16:56;;;;;;;0.70;0.52;;;;;;;;;;5040312;28;20229;-89
2022/08/08 12:19:24;;;;;;;1.20;0.75;;;;;;;;;;5055341;28;20236;-89
2022/08/08 12:21:51;;;;;;;1.25;0.80;;;;;;;;;;5055131;28;20233;-89
2022/08/08 12:24:20;;;;;;;1.20;0.80;;;;;;;;;;5054664;28;20555;-90
2022/08/08 12:26:48;;;;;;;0.95;0.82;;;;;;;;;;5054608;28;20296;-90
2022/08/08 12:29:19;;;;;;;0.93;0.80;;;;;;;;;;5054587;28;20204;-88
2022/08/08 12:32:01;;;;;;;0.93;0.70;;;;;;;;;;5055141;28;20240;-89
2022/08/08 12:34:38;;;;;;;0.52;0.52;;;;;;;;;;5055273;28;20221;-88
2022/08/08 12:37:06;;;;;;;1.02;1.00;;;;;;;;;;5054493;28;20232;-90
2022/08/08 12:39:33;;;;;;;0.60;0.60;;;;;;;;;;5054776;28;20198;-89
2022/08/08 12:42:00;;;;;;;1.58;0.70;;;;;;;;;;5054195;28;20244;-86
2022/08/08 12:44:28;;;;;;;1.58;0.70;;;;;;;;;;5054375;28;20233;-89
2022/08/08 12:46:57;;;;;;;0.65;0.65;;;;;;;;;;5053652;28;20265;-89
2022/08/08 12:49:27;;;;;;;0.57;0.50;;;;;;;;;;5054901;28;20209;-90
2022/08/08 12:51:55;;;;;;;2.05;1.02;;;;;;;;;;5053639;28;20766;-91
2022/08/08 12:54:23;;;;;;;0.70;0.70;;;;;;;;;;5054203;28;20221;-89
2022/08/08 12:56:50;;;;;;;0.93;0.50;;;;;;;;;;5053615;28;20236;-88
2022/08/08 12:59:18;;;;;;;1.25;0.77;;;;;;;;;;5054147;28;20567;-88
2022/08/08 13:01:51;;;;;;;2.97;0.63;;;;;;;;;;5053709;28;20207;-85
2022/08/08 13:04:20;;;;;;;2.08;0.70;;;;;;;;;;5053074;28;20233;-87
2022/08/08 13:06:54;;;;;;;1.00;0.68;;;;;;;;;;5053137;28;20689;-87
2022/08/08 13:09:29;;;;;;;0.93;0.70;;;;;;;;;;5053874;28;20205;-87
2022/08/08 13:11:56;;;;;;;0.77;0.75;;;;;;;;;;5053483;28;20239;-87
2022/08/08 13:14:36;;;;;;;0.85;0.65;;;;;;;;;;5053985;28;20244;-86
2022/08/08 13:17:03;;;;;;;1.38;0.57;;;;;;;;;;5053439;28;20264;-88
2022/08/08 13:19:32;;;;;;;0.70;0.70;;;;;;;;;;5054354;28;20654;-87
2022/08/08 13:21:59;;;;;;;1.33;0.73;;;;;;;;;;5052905;28;20236;-89
2022/08/08 13:24:26;;;;;;;0.50;0.50;;;;;;;;;;5044969;28;20256;-89
2022/08/08 13:27:03;;;;;;;0.82;0.70;;;;;;;;;;5040697;28;20240;-89
2022/08/08 13:29:31;;;;;;;1.10;0.80;;;;;;;;;;5054218;28;20201;-89
2022/08/08 13:32:01;;;;;;;1.35;0.65;;;;;;;;;;5068386;28;20235;-90
2022/08/08 13:34:28;;;;;;;0.35;0.35;;;;;;;;;;5073872;28;20716;-89
2022/08/08 13:36:57;;;;;;;0.68;0.68;;;;;;;;;;5069633;28;20647;-90
2022/08/08 13:39:24;;;;;;;1.15;0.82;;;;;;;;;;5032570;28;20194;-89
2022/08/08 13:41:53;;;;;;;0.70;0.50;;;;;;;;;;5052655;28;20236;-90
2022/08/08 13:44:21;;;;;;;1.60;0.70;;;;;;;;;;5040686;28;20738;-90
2022/08/08 13:46:55;;;;;;;0.70;0.70;;;;;;;;;;5032681;28;20257;-89
2022/08/08 13:49:24;;;;;;;0.80;0.65;;;;;;;;;;5032739;28;20210;-89
2022/08/08 13:52:00;;;;;;;0.68;0.47;;;;;;;;;;5032611;28;20719;-88
2022/08/08 13:54:27;;;;;;;0.70;0.70;;;;;;;;;;5032839;28;20265;-89
2022/08/08 13:57:01;;;;;;;0.50;0.50;;;;;;;;;;5032772;28;20249;-89
2022/08/08 13:59:29;;;;;;;1.40;0.60;;;;;;;;;;5033579;28;20210;-89
2022/08/08 14:01:56;;;;;;;0.68;0.68;;;;;;;;;;5051657;28;20282;-89
2022/08/08 14:04:24;;;;;;;1.40;0.52;;;;;;;;;;5053466;28;20233;-88
2022/08/08 14:06:59;;;;;;;0.75;0.68;;;;;;;;;;5052986;28;20689;-88
2022/08/08 14:09:34;;;;;;;0.60;0.60;;;;;;;;;;5053753;28;20199;-88
2022/08/08 14:12:02;;;;;;;0.80;0.70;;;;;;;;;;5052765;28;20228;-88
2022/08/08 14:14:38;;;;;;;3.20;0.90;;;;;;;;;;5053115;28;20229;-88
2022/08/08 14:17:06;;;;;;;1.08;0.70;;;;;;;;;;5053158;28;20232;-88
2022/08/08 14:19:37;;;;;;;2.25;0.70;;;;;;;;;;5053472;28;20202;-88
2022/08/08 14:22:19;;;;;;;0.68;0.60;;;;;;;;;;5052896;28;20237;-88
2022/08/08 14:24:51;;;;;;;0.55;0.52;;;;;;;;;;5053004;28;20634;-88
2022/08/08 14:27:20;;;;;;;0.65;0.65;;;;;;;;;;5052129;28;20236;-88
2022/08/08 14:29:57;;;;;;;0.93;0.75;;;;;;;;;;5052399;28;20209;-88
2022/08/08 14:32:25;;;;;;;1.60;0.65;;;;;;;;;;5051892;28;20636;-87
2022/08/08 14:34:52;;;;;;;3.47;0.80;;;;;;;;;;5053166;28;20228;-88
2022/08/08 14:37:20;;;;;;;3.05;1.10;;;;;;;;;;5052104;28;20237;-89
2022/08/08 14:39:53;;;;;;;0.75;0.63;;;;;;;;;;5052283;28;20232;-87
2022/08/08 14:42:28;;;;;;;3.53;1.10;;;;;;;;;;5051483;28;20229;-88
2022/08/08 14:45:01;;;;;;;0.60;0.60;;;;;;;;;;5052162;28;20656;-87
2022/08/08 14:47:28;;;;;;;0.55;0.50;;;;;;;;;;5051971;28;20689;-88
2022/08/08 14:50:05;;;;;;;2.15;0.80;;;;;;;;;;5052741;28;20735;-88
2022/08/08 14:52:39;;;;;;;0.60;0.57;;;;;;;;;;5053096;28;20245;-87
2022/08/08 14:55:09;;;;;;;2.83;0.70;;;;;;;;;;5052934;28;20697;-89
2022/08/08 14:57:36;;;;;;;0.55;0.55;;;;;;;;;;5052771;28;20236;-86
2022/08/08 15:00:04;;;;;;;0.80;0.70;;;;;;;;;;5061336;28;20206;-85
2022/08/08 15:02:31;;;;;;;1.75;0.70;;;;;;;;;;5054548;28;20307;-84
2022/08/08 15:04:58;;;;;;;1.20;0.90;;;;;;;;;;5053529;28;20256;-85
2022/08/08 15:07:26;;;;;;;1.00;0.80;;;;;;;;;;5051962;28;20283;-85
2022/08/08 15:09:53;;;;;;;0.95;0.70;;;;;;;;;;5053351;28;20209;-86
2022/08/08 15:12:21;;;;;;;3.08;0.70;;;;;;;;;;5051440;28;20718;-85
2022/08/08 15:14:48;;;;;;;1.02;0.88;;;;;;;;;;5038411;28;20233;-87
2022/08/08 15:17:16;;;;;;;2.35;0.63;;;;;;;;;;5050792;28;20343;-84
2022/08/08 15:19:44;;;;;;;0.60;0.60;;;;;;;;;;5051616;28;20229;-85
2022/08/08 15:22:11;;;;;;;0.63;0.63;;;;;;;;;;5051135;28;20236;-86
2022/08/08 15:24:38;;;;;;;0.80;0.80;;;;;;;;;;5051243;28;20872;-85
2022/08/08 15:27:05;;;;;;;0.55;0.55;;;;;;;;;;5051082;28;20237;-86
2022/08/08 15:29:33;;;;;;;1.15;0.70;;;;;;;;;;5051997;28;20213;-86
2022/08/08 15:32:02;;;;;;;0.50;0.50;;;;;;;;;;5050672;28;20276;-87
2022/08/08 15:34:29;;;;;;;0.60;0.60;;;;;;;;;;5038241;28;20235;-85
2022/08/08 15:36:56;;;;;;;0.73;0.73;;;;;;;;;;5030582;28;20249;-85
2022/08/08 15:39:23;;;;;;;0.50;0.50;;;;;;;;;;5032097;28;20210;-86
2022/08/08 15:41:50;;;;;;;0.73;0.70;;;;;;;;;;5030677;28;20245;-84
2022/08/08 15:44:17;;;;;;;1.02;0.65;;;;;;;;;;5031594;28;20226;-86
2022/08/08 15:46:46;;;;;;;1.15;0.40;;;;;;;;;;5031517;28;20230;-85
2022/08/08 15:49:13;;;;;;;0.47;0.47;;;;;;;;;;5033726;28;20219;-85
2022/08/08 15:51:40;;;;;;;1.52;0.70;;;;;;;;;;5047482;28;20317;-85
2022/08/08 15:54:07;;;;;;;2.67;0.75;;;;;;;;;;5035489;28;20226;-85
2022/08/08 15:56:34;;;;;;;0.73;0.60;;;;;;;;;;5034096;28;20209;-85
2022/08/08 15:59:01;;;;;;;1.27;0.60;;;;;;;;;;5035327;28;20211;-83
2022/08/08 16:01:28;;;;;;;1.42;0.85;;;;;;;;;;5035133;28;20214;-83
2022/08/08 16:03:56;;;;;;;1.00;0.90;;;;;;;;;;5034583;28;20238;-83
2022/08/08 16:06:24;;;;;;;0.70;0.70;;;;;;;;;;5034179;28;20211;-84
2022/08/08 16:08:51;;;;;;;3.88;0.73;;;;;;;;;;5034486;28;20238;-84
2022/08/08 16:11:18;;;;;;;2.40;0.80;;;;;;;;;;5037077;28;20832;-86
2022/08/08 16:13:45;;;;;;;1.90;0.90;;;;;;;;;;5045952;28;20254;-84
2022/08/08 16:16:13;;;;;;;0.43;0.43;;;;;;;;;;5048986;28;20202;-84
2022/08/08 16:18:40;;;;;;;0.95;0.90;;;;;;;;;;5047264;28;20265;-85
2022/08/08 16:21:09;;;;;;;1.67;0.80;;;;;;;;;;5056970;28;20206;-85
2022/08/08 16:23:36;;;;;;;2.80;0.50;;;;;;;;;;5063136;28;20238;-85
2022/08/08 16:26:03;;;;;;;2.03;0.63;;;;;;;;;;5047982;28;20663;-85
2022/08/08 16:28:30;;;;;;;0.65;0.65;;;;;;;;;;5034211;28;20234;-85
2022/08/08 16:30:58;;;;;;;3.33;0.80;;;;;;;;;;5038018;28;20614;-85
2022/08/08 16:33:25;;;;;;;0.70;0.70;;;;;;;;;;5053859;28;20374;-86
2022/08/08 16:35:52;;;;;;;0.90;0.90;;;;;;;;;;5055035;28;20685;-88
2022/08/08 16:38:20;;;;;;;0.60;0.60;;;;;;;;;;5054170;28;20748;-88
2022/08/08 16:40:47;;;;;;;0.60;0.60;;;;;;;;;;5054867;28;20214;-87
2022/08/08 16:43:14;;;;;;;2.28;0.80;;;;;;;;;;5054034;28;20249;-88
2022/08/08 16:45:41;;;;;;;1.48;1.00;;;;;;;;;;5054591;28;20216;-88
2022/08/08 16:48:09;;;;;;;0.80;0.80;;;;;;;;;;5054616;28;20344;-88
2022/08/08 16:50:36;;;;;;;3.25;0.60;;;;;;;;;;5054749;28;20213;-88
2022/08/08 16:53:03;;;;;;;0.93;0.57;;;;;;;;;;5054435;28;20233;-88
2022/08/08 16:55:32;;;;;;;2.50;0.50;;;;;;;;;;5054772;28;20233;-87
2022/08/08 16:57:59;;;;;;;0.45;0.45;;;;;;;;;;5053938;28;20236;-86
2022/08/08 17:00:26;;;;;;;0.68;0.60;;;;;;;;;;5053471;28;20195;-88
2022/08/08 17:02:53;;;;;;;3.40;0.75;;;;;;;;;;5047069;28;20233;-88
2022/08/08 17:05:20;;;;;;;1.15;0.90;;;;;;;;;;5057191;28;20236;-88
2022/08/08 17:07:48;;;;;;;0.65;0.52;;;;;;;;;;5055393;28;20241;-88
2022/08/08 17:10:15;;;;;;;1.95;0.70;;;;;;;;;;5055050;28;20495;-88
2022/08/08 17:12:44;;;;;;;0.82;0.63;;;;;;;;;;5054296;28;20229;-89
2022/08/08 17:15:11;;;;;;;1.02;0.75;;;;;;;;;;5054156;28;20230;-88
2022/08/08 17:17:39;;;;;;;2.05;0.93;;;;;;;;;;5053198;28;20225;-88
2022/08/08 17:20:07;;;;;;;4.40;1.00;;;;;;;;;;5038785;28;20206;-88
2022/08/08 17:22:34;;;;;;;2.92;0.80;;;;;;;;;;5033127;28;20230;-87
2022/08/08 17:25:01;;;;;;;0.60;0.60;;;;;;;;;;5043947;28;20260;-78
2022/08/08 17:27:28;;;;;;;1.48;0.70;;;;;;;;;;5052474;28;20582;-79
2022/08/08 17:29:57;;;;;;;1.13;0.80;;;;;;;;;;5055583;28;20269;-81
2022/08/08 17:32:24;;;;;;;2.05;0.95;;;;;;;;;;5054423;28;20234;-83
2022/08/08 17:34:54;;;;;;;1.77;0.70;;;;;;;;;;5054017;28;20280;-82
2022/08/08 17:37:21;;;;;;;1.10;0.60;;;;;;;;;;5055728;28;20697;-82
2022/08/08 17:39:49;;;;;;;0.90;0.90;;;;;;;;;;5055741;28;20198;-83
2022/08/08 17:42:16;;;;;;;1.35;1.27;;;;;;;;;;5054585;28;20260;-83
2022/08/08 17:44:43;;;;;;;1.70;0.88;;;;;;;;;;5055572;28;20249;-84
2022/08/08 17:47:11;;;;;;;0.60;0.60;;;;;;;;;;5045587;28;20238;-82
2022/08/08 17:49:38;;;;;;;0.95;0.90;;;;;;;;;;5039740;28;20203;-80
2022/08/08 17:52:12;;;;;;;0.77;0.50;;;;;;;;;;5035349;28;20226;-80
2022/08/08 17:54:39;;;;;;;1.50;0.90;;;;;;;;;;5036906;28;20230;-82
2022/08/08 17:57:06;;;;;;;1.85;0.85;;;;;;;;;;5035898;28;20714;-81
2022/08/08 17:59:34;;;;;;;4.10;1.00;;;;;;;;;;5036686;28;20202;-83
2022/08/08 18:02:02;;;;;;;1.65;1.20;;;;;;;;;;5036069;28;20632;-81
2022/08/08 18:04:31;;;;;;;2.28;1.08;;;;;;;;;;5037362;28;20265;-81
2022/08/08 18:06:59;;;;;;;7.68;0.77;;;;;;;;;;5036440;28;20257;-81
2022/08/08 18:09:27;;;;;;;3.70;0.95;;;;;;;;;;5034088;28;20199;-82
2022/08/08 18:11:55;;;;;;;3.67;1.10;;;;;;;;;;5036344;28;20234;-82
2022/08/08 18:14:22;;;;;;;1.20;1.10;;;;;;;;;;5045186;28;20234;-84
2022/08/08 18:16:49;;;;;;;6.38;1.00;;;;;;;;;;5039465;28;20610;-80
2022/08/08 18:19:20;;;;;;;1.38;1.02;;;;;;;;;;5039104;28;20349;-82
2022/08/08 18:21:48;;;;;;;1.88;0.98;;;;;;;;;;5037352;28;20229;-81
2022/08/08 18:24:16;;;;;;;2.88;0.95;;;;;;;;;;5048527;28;20226;-82
2022/08/08 18:26:43;;;;;;;4.80;0.90;;;;;;;;;;5049400;28;20241;-81
2022/08/08 18:29:11;;;;;;;1.73;0.88;;;;;;;;;;5050494;28;20198;-82
2022/08/08 18:31:38;;;;;;;3.90;1.10;;;;;;;;;;5046934;28;20214;-82
2022/08/08 18:34:05;;;;;;;0.90;0.90;;;;;;;;;;5052325;28;20222;-80
2022/08/08 18:36:32;;;;;;;1.10;1.02;;;;;;;;;;5052365;28;20210;-80
2022/08/08 18:39:00;;;;;;;1.30;0.93;;;;;;;;;;5053204;28;20213;-81
2022/08/08 18:41:27;;;;;;;5.57;1.15;;;;;;;;;;5053854;28;20205;-81
2022/08/08 18:43:54;;;;;;;1.52;1.38;;;;;;;;;;5054858;28;20233;-83
2022/08/08 18:46:22;;;;;;;2.97;0.82;;;;;;;;;;5047503;28;20198;-81
2022/08/08 18:48:49;;;;;;;0.95;0.88;;;;;;;;;;5049393;28;20718;-82
2022/08/08 18:51:16;;;;;;;0.98;0.95;;;;;;;;;;5054095;28;20206;-82
2022/08/08 18:53:43;;;;;;;2.97;1.17;;;;;;;;;;5053425;28;20237;-81
2022/08/08 18:56:20;;;;;;;0.82;0.82;;;;;;;;;;5054899;28;20663;-81
2022/08/08 18:58:47;;;;;;;1.15;0.80;;;;;;;;;;5040783;28;20232;-82
2022/08/08 19:01:16;;;;;;;2.25;0.85;;;;;;;;;;5056804;28;20236;-82
2022/08/08 19:03:43;;;;;;;2.25;1.08;;;;;;;;;;5056273;28;20242;-82
2022/08/08 19:06:11;;;;;;;0.82;0.70;;;;;;;;;;5056214;28;20202;-80
2022/08/08 19:08:38;;;;;;;1.27;0.77;;;;;;;;;;5055750;28;20622;-81
2022/08/08 19:11:05;;;;;;;0.85;0.80;;;;;;;;;;5056552;28;20209;-83
2022/08/08 19:13:35;;;;;;;8.23;1.65;;;;;;;;;;5057692;28;20237;-82
2022/08/08 19:16:02;;;;;;;3.42;1.05;;;;;;;;;;5048821;28;20195;-82
2022/08/08 19:18:29;;;;;;;3.03;1.02;;;;;;;;;;5059104;28;20226;-81
2022/08/08 19:20:57;;;;;;;5.03;1.10;;;;;;;;;;5058486;28;20202;-81
2022/08/08 19:23:24;;;;;;;2.92;0.90;;;;;;;;;;5057690;28;20801;-80
2022/08/08 19:25:52;;;;;;;1.00;1.00;;;;;;;;;;5055289;28;20210;-81
2022/08/08 19:28:20;;;;;;;1.27;1.00;;;;;;;;;;5055577;28;20238;-79
2022/08/08 19:30:48;;;;;;;1.05;1.05;;;;;;;;;;5056474;28;20240;-81
2022/08/08 19:33:15;;;;;;;3.95;1.15;;;;;;;;;;5056958;28;20233;-82
2022/08/08 19:35:42;;;;;;;3.15;1.00;;;;;;;;;;5052411;28;20217;-82
2022/08/08 19:38:09;;;;;;;1.08;1.00;;;;;;;;;;5055416;28;20233;-81
2022/08/08 19:40:36;;;;;;;0.93;0.75;;;;;;;;;;5055062;28;20202;-81
2022/08/08 19:43:03;;;;;;;3.00;1.05;;;;;;;;;;5044064;28;20230;-82
2022/08/08 19:45:48;;;;;;;0.70;0.70;;;;;;;;;;5055368;28;20267;-84
2022/08/08 19:48:17;;;;;;;1.05;0.88;;;;;;;;;;5059621;28;20302;-82
2022/08/08 19:50:44;;;;;;;2.55;0.98;;;;;;;;;;5057115;28;20685;-84
2022/08/08 19:53:11;;;;;;;1.20;1.10;;;;;;;;;;5056148;28;20241;-82
2022/08/08 19:55:38;;;;;;;2.38;1.02;;;;;;;;;;5055719;28;20245;-80
2022/08/08 19:58:05;;;;;;;3.10;1.15;;;;;;;;;;5056243;28;20268;-81
2022/08/08 20:00:33;;;;;;;2.17;1.17;;;;;;;;;;5056353;28;20230;-80
2022/08/08 20:03:00;;;;;;;1.58;0.90;;;;;;;;;;5057150;28;20706;-81
2022/08/08 20:05:29;;;;;;;1.50;1.10;;;;;;;;;;5057062;28;20600;-83
2022/08/08 20:07:56;;;;;;;1.40;0.93;;;;;;;;;;5056497;28;20233;-82
2022/08/08 20:10:23;;;;;;;3.63;0.95;;;;;;;;;;5053410;28;20233;-82
2022/08/08 20:12:50;;;;;;;3.90;1.27;;;;;;;;;;5051419;28;20206;-81
2022/08/08 20:15:17;;;;;;;0.95;0.95;;;;;;;;;;5044235;28;20232;-82
2022/08/08 20:17:46;;;;;;;2.88;1.02;;;;;;;;;;5055008;28;20186;-82
2022/08/08 20:20:13;;;;;;;1.15;0.90;;;;;;;;;;5047295;28;20296;-82
2022/08/08 20:22:42;;;;;;;1.10;1.00;;;;;;;;;;5048848;28;20214;-82
2022/08/08 20:25:09;;;;;;;1.20;1.10;;;;;;;;;;5035858;28;20223;-82
2022/08/08 20:27:37;;;;;;;0.93;0.93;;;;;;;;;;5036735;28;20227;-82
2022/08/08 20:30:04;;;;;;;1.05;0.88;;;;;;;;;;5034146;28;20207;-83
2022/08/08 20:32:32;;;;;;;3.03;1.13;;;;;;;;;;5052926;28;20202;-85
2022/08/08 20:35:00;;;;;;;1.45;1.17;;;;;;;;;;5032572;28;20715;-83
2022/08/08 20:37:27;;;;;;;3.97;1.08;;;;;;;;;;5035737;28;20244;-83
2022/08/08 20:39:55;;;;;;;1.42;1.05;;;;;;;;;;5036186;28;20218;-85
2022/08/08 20:42:24;;;;;;;1.70;1.25;;;;;;;;;;5035509;28;20234;-85
2022/08/08 20:44:51;;;;;;;2.13;1.15;;;;;;;;;;5035985;28;20230;-84
2022/08/08 20:47:18;;;;;;;2.67;1.00;;;;;;;;;;5034607;28;20242;-85
2022/08/08 20:49:45;;;;;;;3.60;1.10;;;;;;;;;;5038036;28;20299;-84
2022/08/08 20:52:12;;;;;;;2.55;1.30;;;;;;;;;;5054129;28;20243;-87
2022/08/08 20:54:40;;;;;;;3.15;1.08;;;;;;;;;;5055433;28;20233;-85
2022/08/08 20:57:08;;;;;;;2.28;1.20;;;;;;;;;;5054554;28;20236;-86
2022/08/08 20:59:35;;;;;;;1.00;1.00;;;;;;;;;;5055752;28;20202;-86
2022/08/08 21:02:03;;;;;;;1.25;1.15;;;;;;;;;;5054882;28;20241;-86
2022/08/08 21:04:30;;;;;;;1.20;1.10;;;;;;;;;;5054637;28;20278;-85
2022/08/08 21:06:57;;;;;;;1.20;1.10;;;;;;;;;;5048417;28;20233;-86
2022/08/08 21:09:24;;;;;;;1.58;1.30;;;;;;;;;;5057014;28;20214;-85
2022/08/08 21:11:53;;;;;;;1.02;0.95;;;;;;;;;;5054723;28;20233;-86
2022/08/08 21:14:21;;;;;;;1.38;1.25;;;;;;;;;;5054827;28;20257;-86
2022/08/08 21:16:49;;;;;;;1.17;0.93;;;;;;;;;;5054113;28;20230;-85
2022/08/08 21:19:16;;;;;;;1.08;1.00;;;;;;;;;;5054361;28;20229;-85
2022/08/08 21:21:43;;;;;;;2.10;1.27;;;;;;;;;;5054312;28;20233;-85
2022/08/08 21:24:10;;;;;;;2.83;0.90;;;;;;;;;;5056104;28;20222;-85
2022/08/08 21:26:37;;;;;;;1.23;1.13;;;;;;;;;;5054928;28;20238;-85
2022/08/08 21:29:04;;;;;;;2.38;1.13;;;;;;;;;;5055475;28;20237;-85
2022/08/08 21:31:33;;;;;;;1.70;0.90;;;;;;;;;;5054467;28;20237;-85
2022/08/08 21:34:00;;;;;;;2.30;1.17;;;;;;;;;;5054963;28;20228;-86
2022/08/08 21:36:27;;;;;;;1.25;1.15;;;;;;;;;;5053695;28;20233;-86
2022/08/08 21:38:55;;;;;;;1.45;1.23;;;;;;;;;;5055155;28;20206;-86
2022/08/08 21:41:22;;;;;;;0.98;0.98;;;;;;;;;;5054046;28;20645;-87
2022/08/08 21:43:49;;;;;;;7.78;1.50;;;;;;;;;;5058894;28;20228;-84
2022/08/08 21:46:16;;;;;;;2.65;0.90;;;;;;;;;;5073245;28;20236;-83
2022/08/08 21:48:44;;;;;;;1.25;1.10;;;;;;;;;;5062650;28;20581;-84
2022/08/08 21:51:11;;;;;;;1.45;0.90;;;;;;;;;;5054431;28;20734;-84
2022/08/08 21:53:38;;;;;;;2.85;1.20;;;;;;;;;;5054638;28;20269;-84
2022/08/08 21:56:06;;;;;;;3.22;1.35;;;;;;;;;;5054220;28;20233;-83
2022/08/08 21:58:33;;;;;;;2.00;1.10;;;;;;;;;;5055097;28;20202;-84
2022/08/08 22:01:00;;;;;;;3.33;1.30;;;;;;;;;;5054100;28;20237;-83
2022/08/08 22:03:29;;;;;;;1.10;1.00;;;;;;;;;;5054783;28;20209;-84
2022/08/08 22:05:58;;;;;;;2.33;1.35;;;;;;;;;;5034270;28;20313;-84
2022/08/08 22:08:26;;;;;;;3.95;1.20;;;;;;;;;;5034464;28;20223;-84
2022/08/08 22:10:53;;;;;;;1.92;1.08;;;;;;;;;;5042788;28;20608;-84
2022/08/08 22:13:20;;;;;;;3.28;1.50;;;;;;;;;;5054799;28;20205;-84
2022/08/08 22:15:48;;;;;;;4.18;1.38;;;;;;;;;;5054069;28;20331;-84
2022/08/08 22:18:15;;;;;;;2.60;1.30;;;;;;;;;;5054930;28;20209;-84
2022/08/08 22:20:43;;;;;;;3.90;1.20;;;;;;;;;;5053748;28;20229;-84
2022/08/08 22:23:12;;;;;;;2.42;1.35;;;;;;;;;;5054073;28;20245;-84
2022/08/08 22:25:39;;;;;;;1.75;1.05;;;;;;;;;;5053434;28;20238;-84
2022/08/08 22:28:07;;;;;;;5.13;1.00;;;;;;;;;;5054206;28;20226;-84
2022/08/08 22:30:34;;;;;;;2.50;1.30;;;;;;;;;;5053109;28;20705;-84
2022/08/08 22:33:01;;;;;;;1.42;1.08;;;;;;;;;;5054049;28;20228;-84
2022/08/08 22:35:28;;;;;;;1.35;1.13;;;;;;;;;;5053282;28;20240;-84
2022/08/08 22:37:55;;;;;;;1.27;1.13;;;;;;;;;;5053466;28;20198;-84
2022/08/08 22:40:24;;;;;;;1.17;1.10;;;;;;;;;;5053371;28;20697;-83
2022/08/08 22:42:51;;;;;;;1.35;1.20;;;;;;;;;;5053594;28;20199;-83
2022/08/08 22:45:18;;;;;;;1.20;0.80;;;;;;;;;;5053111;28;20256;-84
2022/08/08 22:47:45;;;;;;;4.47;1.15;;;;;;;;;;5052962;28;20206;-84
2022/08/08 22:50:12;;;;;;;1.30;1.20;;;;;;;;;;5052797;28;20232;-84
2022/08/08 22:52:39;;;;;;;1.35;1.25;;;;;;;;;;5053358;28;20206;-84
2022/08/08 22:55:07;;;;;;;1.20;1.10;;;;;;;;;;5052631;28;20587;-84
2022/08/08 22:57:38;;;;;;;1.40;1.30;;;;;;;;;;5052790;28;20210;-84